createdAt,value
2023-05-06T00:02:22.398Z,80.19
2023-05-06T00:04:50.390Z,80.61
2023-05-06T00:07:19.558Z,80.85
2023-05-06T00:09:47.427Z,81.57
2023-05-06T00:12:15.416Z,83.10
2023-05-06T00:14:43.245Z,84.44
2023-05-06T00:17:11.105Z,85.29
2023-05-06T00:19:39.691Z,86.75
2023-05-06T00:22:07.417Z,87.03
2023-05-06T00:24:36.563Z,88.04
2023-05-06T00:27:04.558Z,88.70
2023-05-06T00:29:32.280Z,89.14
2023-05-06T00:32:00.059Z,88.85
2023-05-06T00:34:27.903Z,89.50
2023-05-06T00:36:55.756Z,90.33
2023-05-06T00:39:23.598Z,90.26
2023-05-06T00:41:52.727Z,89.94
2023-05-06T00:44:20.490Z,89.93
2023-05-06T00:46:48.261Z,89.45
2023-05-06T00:49:16.136Z,88.94
2023-05-06T00:51:43.915Z,89.50
2023-05-06T00:54:12.019Z,88.79
2023-05-06T00:56:40.219Z,89.72
2023-05-06T00:59:09.328Z,90.16
2023-05-06T01:01:37.661Z,91.15
2023-05-06T01:04:07.983Z,90.42
2023-05-06T01:06:46.489Z,90.29
2023-05-06T01:09:21.705Z,91.01
2023-05-06T01:11:53.928Z,91.04
2023-05-06T01:14:31.815Z,91.41
2023-05-06T01:17:04.217Z,92.02
2023-05-06T01:19:41.847Z,92.31
2023-05-06T01:22:11.345Z,93.21
2023-05-06T01:24:42.422Z,93.46
2023-05-06T01:27:11.208Z,93.79
2023-05-06T01:29:41.740Z,93.83
2023-05-06T01:32:22.719Z,94.12
2023-05-06T01:35:00.029Z,94.56
2023-05-06T01:37:35.808Z,95.17
2023-05-06T01:40:07.702Z,95.47
2023-05-06T01:42:37.201Z,95.53
2023-05-06T01:45:08.234Z,95.85
2023-05-06T01:47:37.089Z,96.78
2023-05-06T01:50:06.510Z,97.61
2023-05-06T01:52:34.231Z,98.58
2023-05-06T01:55:01.949Z,99.37
2023-05-06T01:57:31.143Z,99.93
2023-05-06T01:59:58.866Z,100.00
2023-05-06T02:02:26.696Z,100.00
2023-05-06T02:04:54.574Z,100.00
2023-05-06T02:07:22.317Z,100.00
2023-05-06T02:09:50.071Z,100.00
2023-05-06T02:12:17.889Z,100.00
2023-05-06T02:14:46.993Z,100.00
2023-05-06T02:17:14.707Z,100.00
2023-05-06T02:19:42.544Z,100.00
2023-05-06T02:22:10.330Z,100.00
2023-05-06T02:24:38.087Z,100.00
2023-05-06T02:27:06.358Z,100.00
2023-05-06T02:29:34.067Z,100.00
2023-05-06T02:32:03.131Z,100.00
2023-05-06T02:34:31.001Z,100.00
2023-05-06T02:36:58.732Z,100.00
2023-05-06T02:39:26.538Z,100.00
2023-05-06T02:41:54.357Z,100.00
2023-05-06T02:44:22.161Z,100.00
2023-05-06T02:46:49.901Z,100.00
2023-05-06T02:49:19.027Z,100.00
2023-05-06T02:51:47.158Z,100.00
2023-05-06T02:54:14.888Z,100.00
2023-05-06T02:56:43.502Z,100.00
2023-05-06T02:59:11.222Z,100.00
2023-05-06T03:01:38.981Z,100.00
2023-05-06T03:04:07.105Z,100.00
2023-05-06T03:06:36.294Z,100.00
2023-05-06T03:09:05.089Z,100.00
2023-05-06T03:11:33.305Z,100.00
2023-05-06T03:14:01.027Z,100.00
2023-05-06T03:16:28.827Z,100.00
2023-05-06T03:18:56.641Z,100.00
2023-05-06T03:21:24.531Z,100.00
2023-05-06T03:23:53.641Z,100.00
2023-05-06T03:26:21.487Z,100.00
2023-05-06T03:28:49.279Z,100.00
2023-05-06T03:31:17.259Z,100.00
2023-05-06T03:33:45.105Z,100.00
2023-05-06T03:36:14.041Z,100.00
2023-05-06T03:38:41.768Z,100.00
2023-05-06T03:41:11.033Z,100.00
2023-05-06T03:43:38.824Z,100.00
2023-05-06T03:46:06.585Z,100.00
2023-05-06T03:48:34.364Z,100.00
2023-05-06T03:51:02.334Z,100.00
2023-05-06T03:53:30.201Z,100.00
2023-05-06T03:55:57.987Z,100.00
2023-05-06T03:58:27.060Z,100.00
2023-05-06T04:00:54.801Z,100.00
2023-05-06T04:03:22.734Z,100.00
2023-05-06T04:05:51.479Z,100.00
2023-05-06T04:08:19.221Z,100.00
2023-05-06T04:10:47.643Z,100.00
2023-05-06T04:13:15.591Z,100.00
2023-05-06T04:15:44.767Z,100.00
2023-05-06T04:18:15.368Z,100.00
2023-05-06T04:20:43.073Z,100.00
2023-05-06T04:23:10.823Z,100.00
2023-05-06T04:25:39.494Z,100.00
2023-05-06T04:28:07.255Z,100.00
2023-05-06T04:30:35.934Z,100.00
2023-05-06T04:33:05.156Z,100.00
2023-05-06T04:35:33.570Z,100.00
2023-05-06T04:38:03.573Z,100.00
2023-05-06T04:40:31.384Z,100.00
2023-05-06T04:42:59.149Z,100.00
2023-05-06T04:45:27.172Z,100.00
2023-05-06T04:47:55.005Z,100.00
2023-05-06T04:50:24.401Z,100.00
2023-05-06T04:52:52.147Z,100.00
2023-05-06T04:55:19.996Z,100.00
2023-05-06T04:57:47.733Z,100.00
2023-05-06T05:00:16.424Z,100.00
2023-05-06T05:02:44.389Z,100.00
2023-05-06T05:05:12.375Z,100.00
2023-05-06T05:07:41.707Z,100.00
2023-05-06T05:10:10.688Z,100.00
2023-05-06T05:12:38.653Z,100.00
2023-05-06T05:15:07.724Z,100.00
2023-05-06T05:17:35.806Z,100.00
2023-05-06T05:20:04.858Z,100.00
2023-05-06T05:22:32.898Z,100.00
2023-05-06T05:25:02.046Z,100.00
2023-05-06T05:27:29.801Z,100.00
2023-05-06T05:29:57.580Z,100.00
2023-05-06T05:32:25.443Z,100.00
2023-05-06T05:34:53.295Z,100.00
2023-05-06T05:37:21.119Z,100.00
2023-05-06T05:39:48.932Z,100.00
2023-05-06T05:42:18.031Z,100.00
2023-05-06T05:44:45.858Z,100.00
2023-05-06T05:47:13.677Z,100.00
2023-05-06T05:49:41.815Z,100.00
2023-05-06T05:52:09.872Z,100.00
2023-05-06T05:54:37.679Z,100.00
2023-05-06T05:57:05.561Z,100.00
2023-05-06T05:59:34.642Z,100.00
2023-05-06T06:02:02.458Z,100.00
2023-05-06T06:04:30.274Z,100.00
2023-05-06T06:06:58.828Z,100.00
2023-05-06T06:09:26.680Z,100.00
2023-05-06T06:11:54.991Z,100.00
2023-05-06T06:14:22.754Z,100.00
2023-05-06T06:16:51.922Z,100.00
2023-05-06T06:19:19.750Z,100.00
2023-05-06T06:21:47.585Z,100.00
2023-05-06T06:24:15.537Z,100.00
2023-05-06T06:26:43.271Z,100.00
2023-05-06T06:29:11.058Z,100.00
2023-05-06T06:31:40.469Z,100.00
2023-05-06T06:34:12.556Z,100.00
2023-05-06T06:36:45.079Z,100.00
2023-05-06T06:39:12.957Z,99.72
2023-05-06T06:41:40.970Z,100.00
2023-05-06T06:44:08.931Z,100.00
2023-05-06T06:46:36.736Z,100.00
2023-05-06T06:49:04.905Z,100.00
2023-05-06T06:51:34.024Z,97.33
2023-05-06T06:54:01.764Z,96.97
2023-05-06T06:56:29.744Z,95.28
2023-05-06T06:58:57.511Z,91.46
2023-05-06T07:01:25.302Z,91.40
2023-05-06T07:03:53.255Z,92.16
2023-05-06T07:06:21.016Z,89.63
2023-05-06T07:08:50.180Z,85.05
2023-05-06T07:11:17.983Z,85.91
2023-05-06T07:13:45.791Z,86.69
2023-05-06T07:16:13.531Z,87.10
2023-05-06T07:18:41.308Z,88.53
2023-05-06T07:21:09.098Z,87.12
2023-05-06T07:23:36.836Z,86.12
2023-05-06T07:26:06.088Z,85.93
2023-05-06T07:28:33.822Z,85.98
2023-05-06T07:31:01.537Z,86.40
2023-05-06T07:33:29.339Z,85.64
2023-05-06T07:35:57.102Z,86.14
2023-05-06T07:38:25.309Z,84.85
2023-05-06T07:40:53.125Z,84.40
2023-05-06T07:43:22.865Z,82.07
2023-05-06T07:45:50.813Z,82.53
2023-05-06T07:48:20.154Z,81.12
2023-05-06T07:50:48.130Z,81.13
2023-05-06T07:53:15.862Z,81.50
2023-05-06T07:55:43.625Z,84.02
2023-05-06T07:58:11.361Z,81.71
2023-05-06T08:00:40.462Z,79.36
2023-05-06T08:03:08.429Z,80.04
2023-05-06T08:05:36.198Z,78.84
2023-05-06T08:08:04.023Z,80.32
2023-05-06T08:10:31.900Z,79.74
2023-05-06T08:12:59.640Z,78.43
2023-05-06T08:15:27.442Z,79.78
2023-05-06T08:18:02.183Z,78.20
2023-05-06T08:20:35.054Z,75.46
2023-05-06T08:23:02.841Z,76.78
2023-05-06T08:25:30.774Z,76.16
2023-05-06T08:27:58.640Z,74.94
2023-05-06T08:30:26.580Z,75.59
2023-05-06T08:32:54.367Z,72.84
2023-05-06T08:35:23.486Z,73.91
2023-05-06T08:37:51.649Z,75.69
2023-05-06T08:40:21.031Z,75.49
2023-05-06T08:42:50.306Z,74.74
2023-05-06T08:45:19.058Z,74.93
2023-05-06T08:47:47.387Z,72.56
2023-05-06T08:50:15.424Z,73.22
2023-05-06T08:52:44.976Z,72.51
2023-05-06T08:55:13.441Z,73.95
2023-05-06T08:57:43.458Z,70.63
2023-05-06T09:00:12.270Z,71.43
2023-05-06T09:02:42.804Z,72.58
2023-05-06T09:05:12.168Z,69.46
2023-05-06T09:07:40.195Z,70.57
2023-05-06T09:10:14.222Z,71.80
2023-05-06T09:12:42.130Z,68.93
2023-05-06T09:15:11.810Z,69.39
2023-05-06T09:17:39.836Z,68.96
2023-05-06T09:20:12.474Z,69.88
2023-05-06T09:22:40.701Z,69.33
2023-05-06T09:25:12.079Z,69.86
2023-05-06T09:27:40.809Z,69.76
2023-05-06T09:30:11.607Z,70.62
2023-05-06T09:32:40.435Z,70.84
2023-05-06T09:35:09.834Z,69.79
2023-05-06T09:37:37.836Z,68.32
2023-05-06T09:40:06.459Z,68.82
2023-05-06T09:42:35.814Z,66.95
2023-05-06T09:45:03.635Z,67.98
2023-05-06T09:47:35.103Z,68.75
2023-05-06T09:50:03.902Z,70.35
2023-05-06T09:52:32.140Z,69.74
2023-05-06T09:55:01.563Z,69.87
2023-05-06T09:57:30.935Z,69.88
2023-05-06T10:00:02.071Z,70.39
2023-05-06T10:02:30.336Z,67.46
2023-05-06T10:05:00.026Z,67.98
2023-05-06T10:07:29.943Z,67.18
2023-05-06T10:10:00.142Z,66.50
2023-05-06T10:12:28.011Z,66.51
2023-05-06T10:14:56.132Z,64.45
2023-05-06T10:17:26.822Z,64.26
2023-05-06T10:19:59.385Z,66.48
2023-05-06T10:22:53.323Z,64.46
2023-05-06T10:25:27.329Z,64.92
2023-05-06T10:27:55.126Z,62.86
2023-05-06T10:30:24.884Z,61.77
2023-05-06T10:32:58.005Z,60.94
2023-05-06T10:35:36.851Z,62.68
2023-05-06T10:38:06.194Z,63.94
2023-05-06T10:40:34.118Z,61.01
2023-05-06T10:43:27.001Z,59.93
2023-05-06T10:46:02.910Z,59.49
2023-05-06T10:48:33.269Z,59.80
2023-05-06T10:51:24.292Z,60.44
2023-05-06T10:53:58.076Z,59.01
2023-05-06T10:56:25.942Z,59.71
2023-05-06T10:58:55.493Z,59.67
2023-05-06T11:01:24.001Z,60.27
2023-05-06T11:03:53.441Z,58.42
2023-05-06T11:06:38.477Z,58.63
2023-05-06T11:09:07.427Z,60.02
2023-05-06T11:11:49.831Z,60.04
2023-05-06T11:14:27.403Z,58.72
2023-05-06T11:16:56.880Z,59.02
2023-05-06T11:19:27.244Z,54.89
2023-05-06T11:21:57.599Z,56.45
2023-05-06T11:24:27.913Z,54.32
2023-05-06T11:26:56.324Z,55.59
2023-05-06T11:29:24.896Z,56.79
2023-05-06T11:31:54.105Z,57.51
2023-05-06T11:34:24.677Z,56.59
2023-05-06T11:36:58.605Z,56.47
2023-05-06T11:39:30.433Z,55.97
2023-05-06T11:42:02.893Z,56.76
2023-05-06T11:44:32.010Z,57.38
2023-05-06T11:47:01.837Z,56.46
2023-05-06T11:49:29.902Z,56.39
2023-05-06T11:51:59.076Z,58.00
2023-05-06T11:54:28.170Z,59.39
2023-05-06T11:56:57.472Z,59.12
2023-05-06T11:59:30.982Z,58.26
2023-05-06T12:02:00.509Z,59.10
2023-05-06T12:04:28.826Z,60.92
2023-05-06T12:06:57.422Z,59.29
2023-05-06T12:09:26.819Z,58.54
2023-05-06T12:11:55.376Z,55.87
2023-05-06T12:14:23.234Z,58.33
2023-05-06T12:16:51.576Z,57.23
2023-05-06T12:19:20.289Z,54.74
2023-05-06T12:21:48.240Z,54.49
2023-05-06T12:24:16.582Z,56.06
2023-05-06T12:26:47.624Z,55.69
2023-05-06T12:29:17.711Z,54.74
2023-05-06T12:31:48.010Z,55.85
2023-05-06T12:34:16.276Z,54.09
2023-05-06T12:36:45.940Z,55.57
2023-05-06T12:39:14.819Z,56.85
2023-05-06T12:41:43.898Z,54.63
2023-05-06T12:44:33.311Z,55.60
2023-05-06T12:47:02.681Z,57.04
2023-05-06T12:49:48.779Z,56.52
2023-05-06T12:52:17.656Z,57.51
2023-05-06T12:54:45.908Z,57.77
2023-05-06T12:57:13.891Z,56.33
2023-05-06T12:59:44.676Z,56.88
2023-05-06T13:02:13.112Z,58.31
2023-05-06T13:04:41.257Z,58.63
2023-05-06T13:07:08.981Z,58.92
2023-05-06T13:09:36.753Z,59.14
2023-05-06T13:12:05.418Z,59.84
2023-05-06T13:14:34.540Z,60.22
2023-05-06T13:17:06.803Z,60.39
2023-05-06T13:19:34.949Z,60.30
2023-05-06T13:22:02.793Z,61.08
2023-05-06T13:24:30.826Z,60.63
2023-05-06T13:27:00.679Z,58.96
2023-05-06T13:29:29.534Z,57.82
2023-05-06T13:31:57.667Z,58.06
2023-05-06T13:34:27.191Z,57.19
2023-05-06T13:36:56.516Z,56.83
2023-05-06T13:39:25.052Z,57.04
2023-05-06T13:41:54.151Z,55.66
2023-05-06T13:44:22.566Z,55.72
2023-05-06T13:46:50.566Z,57.18
2023-05-06T13:49:19.473Z,55.97
2023-05-06T13:51:48.832Z,55.22
2023-05-06T13:54:16.641Z,55.07
2023-05-06T13:56:44.496Z,55.44
2023-05-06T13:59:13.998Z,55.11
2023-05-06T14:01:42.610Z,53.95
2023-05-06T14:04:10.473Z,55.41
2023-05-06T14:06:38.829Z,53.55
2023-05-06T14:09:08.482Z,53.43
2023-05-06T14:11:36.271Z,54.07
2023-05-06T14:14:04.373Z,54.58
2023-05-06T14:16:32.405Z,56.33
2023-05-06T14:19:00.518Z,54.63
2023-05-06T14:21:28.305Z,54.04
2023-05-06T14:23:56.583Z,54.06
2023-05-06T14:26:26.828Z,54.29
2023-05-06T14:28:54.586Z,53.38
2023-05-06T14:31:23.306Z,53.74
2023-05-06T14:33:51.266Z,54.36
2023-05-06T14:36:19.898Z,53.07
2023-05-06T14:38:47.695Z,53.21
2023-05-06T14:41:15.557Z,52.45
2023-05-06T14:43:44.646Z,52.09
2023-05-06T14:46:14.561Z,52.27
2023-05-06T14:48:43.411Z,52.74
2023-05-06T14:51:11.157Z,51.53
2023-05-06T14:53:38.892Z,51.13
2023-05-06T14:56:08.981Z,49.87
2023-05-06T14:58:37.011Z,52.24
2023-05-06T15:01:07.035Z,52.89
2023-05-06T15:03:36.253Z,52.83
2023-05-06T15:06:04.261Z,51.48
2023-05-06T15:08:32.184Z,52.08
2023-05-06T15:11:01.599Z,53.44
2023-05-06T15:13:30.916Z,52.79
2023-05-06T15:15:58.627Z,53.52
2023-05-06T15:18:27.786Z,52.67
2023-05-06T15:20:58.654Z,52.32
2023-05-06T15:23:26.523Z,53.51
2023-05-06T15:25:54.334Z,53.51
2023-05-06T15:28:24.420Z,53.20
2023-05-06T15:30:52.607Z,51.30
2023-05-06T15:33:20.439Z,51.68
2023-05-06T15:35:49.605Z,50.22
2023-05-06T15:38:17.509Z,49.62
2023-05-06T15:40:51.114Z,51.54
2023-05-06T15:43:23.674Z,49.24
2023-05-06T15:45:52.384Z,50.18
2023-05-06T15:48:20.175Z,49.46
2023-05-06T15:50:49.276Z,50.58
2023-05-06T15:53:17.153Z,50.52
2023-05-06T15:55:49.540Z,50.49
2023-05-06T15:58:24.231Z,50.33
2023-05-06T16:00:52.077Z,50.30
2023-05-06T16:03:19.959Z,52.32
2023-05-06T16:05:49.550Z,54.64
2023-05-06T16:08:17.367Z,55.51
2023-05-06T16:10:45.638Z,56.08
2023-05-06T16:13:13.422Z,56.04
2023-05-06T16:15:42.118Z,57.00
2023-05-06T16:18:09.951Z,57.38
2023-05-06T16:20:37.913Z,57.78
2023-05-06T16:23:07.152Z,58.69
2023-05-06T16:25:35.166Z,59.95
2023-05-06T16:28:03.544Z,60.24
2023-05-06T16:30:31.349Z,60.42
2023-05-06T16:32:59.166Z,60.99
2023-05-06T16:35:27.199Z,61.80
2023-05-06T16:37:54.999Z,61.78
2023-05-06T16:40:24.087Z,62.20
2023-05-06T16:42:51.812Z,62.57
2023-05-06T16:45:19.779Z,63.19
2023-05-06T16:47:48.288Z,64.01
2023-05-06T16:50:16.214Z,63.84
2023-05-06T16:52:44.029Z,63.52
2023-05-06T16:55:11.764Z,63.82
2023-05-06T16:57:40.907Z,64.38
2023-05-06T17:00:11.913Z,64.77
2023-05-06T17:02:40.930Z,65.28
2023-05-06T17:05:09.165Z,65.73
2023-05-06T17:07:37.909Z,65.93
2023-05-06T17:10:06.913Z,66.24
2023-05-06T17:12:34.770Z,66.73
2023-05-06T17:15:05.101Z,66.77
2023-05-06T17:17:32.916Z,66.38
2023-05-06T17:20:00.719Z,67.21
2023-05-06T17:22:28.453Z,67.52
2023-05-06T17:24:56.472Z,67.46
2023-05-06T17:27:24.287Z,67.61
2023-05-06T17:29:52.901Z,68.52
2023-05-06T17:32:22.847Z,69.01
2023-05-06T17:34:50.821Z,69.56
2023-05-06T17:37:18.639Z,69.67
2023-05-06T17:39:47.241Z,69.77
2023-05-06T17:42:15.251Z,70.16
2023-05-06T17:44:43.423Z,70.25
2023-05-06T17:47:11.242Z,70.69
2023-05-06T17:49:40.561Z,71.04
2023-05-06T17:52:08.754Z,71.50
2023-05-06T17:54:37.066Z,71.86
2023-05-06T17:57:04.881Z,71.99
2023-05-06T17:59:32.630Z,72.29
2023-05-06T18:02:00.867Z,72.78
2023-05-06T18:04:28.757Z,73.23
2023-05-06T18:06:57.837Z,73.53
2023-05-06T18:09:25.603Z,73.85
2023-05-06T18:11:53.426Z,74.27
2023-05-06T18:14:21.268Z,74.74
2023-05-06T18:16:49.068Z,75.30
2023-05-06T18:19:16.885Z,75.88
2023-05-06T18:21:44.628Z,76.41
2023-05-06T18:24:16.405Z,76.73
2023-05-06T18:26:46.238Z,77.31
2023-05-06T18:29:14.409Z,77.96
2023-05-06T18:31:42.449Z,78.62
2023-05-06T18:34:10.345Z,79.07
2023-05-06T18:36:38.192Z,79.37
2023-05-06T18:39:06.281Z,79.93
2023-05-06T18:41:35.412Z,80.72
2023-05-06T18:44:04.152Z,81.18
2023-05-06T18:46:32.043Z,82.02
2023-05-06T18:49:00.868Z,83.31
2023-05-06T18:51:31.392Z,83.81
2023-05-06T18:53:59.656Z,84.11
2023-05-06T18:56:27.487Z,83.43
2023-05-06T18:58:56.609Z,83.69
2023-05-06T19:01:25.075Z,83.16
2023-05-06T19:03:53.044Z,83.63
2023-05-06T19:06:20.854Z,84.44
2023-05-06T19:08:48.657Z,85.40
2023-05-06T19:11:18.170Z,85.52
2023-05-06T19:13:46.303Z,85.42
2023-05-06T19:16:15.684Z,85.63
2023-05-06T19:18:43.666Z,86.20
2023-05-06T19:21:13.274Z,86.12
2023-05-06T19:23:41.041Z,86.92
2023-05-06T19:26:10.915Z,87.71
2023-05-06T19:28:38.794Z,88.31
2023-05-06T19:31:08.339Z,88.58
2023-05-06T19:33:37.773Z,89.32
2023-05-06T19:36:06.657Z,90.84
2023-05-06T19:38:35.445Z,91.76
2023-05-06T19:41:03.270Z,92.97
2023-05-06T19:43:31.607Z,93.68
2023-05-06T19:45:59.440Z,95.08
2023-05-06T19:48:27.367Z,96.61
2023-05-06T19:50:56.499Z,97.40
2023-05-06T19:53:24.304Z,97.54
2023-05-06T19:55:55.791Z,98.24
2023-05-06T19:58:26.224Z,98.63
2023-05-06T20:00:56.326Z,99.29
2023-05-06T20:03:27.093Z,100.00
2023-05-06T20:06:05.963Z,100.00
2023-05-06T20:08:35.779Z,100.00
2023-05-06T20:11:05.642Z,100.00
2023-05-06T20:13:33.695Z,100.00
2023-05-06T20:16:04.274Z,100.00
2023-05-06T20:18:32.499Z,100.00
2023-05-06T20:21:01.695Z,100.00
2023-05-06T20:23:30.725Z,100.00
2023-05-06T20:26:01.651Z,100.00
2023-05-06T20:28:29.906Z,100.00
2023-05-06T20:30:59.772Z,100.00
2023-05-06T20:33:27.750Z,100.00
2023-05-06T20:35:56.168Z,100.00
2023-05-06T20:38:26.958Z,100.00
2023-05-06T20:40:54.876Z,100.00
2023-05-06T20:43:23.991Z,100.00
2023-05-06T20:45:52.002Z,100.00
2023-05-06T20:48:19.958Z,100.00
2023-05-06T20:50:47.772Z,100.00
2023-05-06T20:53:15.568Z,100.00
2023-05-06T20:55:44.805Z,100.00
2023-05-06T20:58:12.585Z,100.00
2023-05-06T21:00:40.361Z,100.00
2023-05-06T21:03:08.223Z,100.00
2023-05-06T21:05:36.149Z,100.00
2023-05-06T21:08:04.001Z,100.00
2023-05-06T21:10:31.816Z,100.00
2023-05-06T21:13:01.392Z,100.00
2023-05-06T21:15:29.234Z,100.00
2023-05-06T21:17:57.124Z,100.00
2023-05-06T21:20:24.930Z,100.00
2023-05-06T21:22:53.257Z,100.00
2023-05-06T21:25:21.434Z,100.00
2023-05-06T21:27:49.176Z,100.00
2023-05-06T21:30:18.388Z,100.00
2023-05-06T21:32:46.540Z,100.00
2023-05-06T21:35:14.361Z,100.00
2023-05-06T21:37:42.088Z,100.00
2023-05-06T21:40:11.258Z,100.00
2023-05-06T21:42:39.084Z,100.00
2023-05-06T21:45:08.327Z,100.00
2023-05-06T21:47:37.662Z,100.00
2023-05-06T21:50:06.075Z,100.00
2023-05-06T21:52:33.824Z,100.00
2023-05-06T21:55:01.597Z,100.00
2023-05-06T21:57:29.354Z,100.00
2023-05-06T21:59:57.362Z,100.00
2023-05-06T22:02:25.210Z,100.00
2023-05-06T22:04:54.352Z,100.00
2023-05-06T22:07:22.174Z,100.00
2023-05-06T22:09:49.905Z,100.00
2023-05-06T22:12:17.636Z,100.00
2023-05-06T22:14:46.008Z,100.00
2023-05-06T22:17:13.773Z,100.00
2023-05-06T22:19:41.858Z,100.00
2023-05-06T22:22:11.453Z,100.00
2023-05-06T22:24:40.586Z,100.00
2023-05-06T22:27:08.306Z,100.00
2023-05-06T22:29:36.099Z,100.00
2023-05-06T22:32:04.162Z,100.00
2023-05-06T22:34:32.030Z,100.00
2023-05-06T22:37:00.993Z,100.00
2023-05-06T22:39:30.417Z,100.00
2023-05-06T22:41:58.184Z,100.00
2023-05-06T22:44:25.985Z,100.00
2023-05-06T22:46:54.906Z,100.00
2023-05-06T22:49:23.436Z,100.00
2023-05-06T22:51:51.287Z,100.00
2023-05-06T22:54:19.065Z,100.00
2023-05-06T22:56:48.145Z,100.00
2023-05-06T22:59:16.061Z,100.00
2023-05-06T23:01:43.940Z,100.00
2023-05-06T23:04:11.827Z,100.00
2023-05-06T23:06:40.041Z,100.00
2023-05-06T23:09:07.944Z,100.00
2023-05-06T23:11:35.748Z,100.00
2023-05-06T23:14:05.289Z,100.00
2023-05-06T23:16:33.189Z,100.00
2023-05-06T23:19:01.080Z,100.00
2023-05-06T23:21:28.862Z,100.00
2023-05-06T23:23:56.628Z,100.00
2023-05-06T23:26:24.502Z,100.00
2023-05-06T23:28:52.337Z,100.00
2023-05-06T23:31:21.607Z,100.00
2023-05-06T23:33:49.420Z,100.00
2023-05-06T23:36:17.399Z,100.00
2023-05-06T23:38:45.389Z,100.00
2023-05-06T23:41:13.342Z,100.00
2023-05-06T23:43:41.211Z,100.00
2023-05-06T23:46:09.107Z,100.00
2023-05-06T23:48:38.448Z,100.00
2023-05-06T23:51:06.366Z,100.00
2023-05-06T23:53:36.049Z,100.00
2023-05-06T23:56:04.138Z,100.00
2023-05-06T23:58:31.930Z,100.00
